Time;durP1;ratioP1;P1;durP2;ratioP2;P2;SDS_P1;SDS_P2;PMS_P1;PMS_P2;Temp;Humidity;BMP_temperature;BMP_pressure;BME280_temperature;BME280_humidity;BME280_pressure;Samples;Min_cycle;Max_cycle;Signal;HPM_P1;HPM_P2
2022/10/02 00:04:36;;;;;;;8.95;1.80;;;10.80;99.90;;;;;;5146997;23;20270;-87
2022/10/02 00:07:06;;;;;;;10.90;2.00;;;10.80;99.90;;;;;;4847106;29;20245;-88
2022/10/02 00:09:56;;;;;;;9.05;2.15;;;10.80;99.90;;;;;;4846916;29;20168;-87
2022/10/02 00:12:25;;;;;;;9.60;1.92;;;10.80;99.90;;;;;;4847288;29;20222;-86
2022/10/02 00:14:55;;;;;;;8.00;1.67;;;10.90;99.90;;;;;;4848462;29;20185;-87
2022/10/02 00:17:26;;;;;;;8.70;2.00;;;10.80;99.90;;;;;;4844387;29;20213;-90
2022/10/02 00:19:56;;;;;;;7.03;1.67;;;10.90;99.90;;;;;;4829034;29;20173;-90
2022/10/02 00:22:43;;;;;;;8.05;2.13;;;10.80;99.90;;;;;;4844044;29;20188;-89
2022/10/02 00:25:31;;;;;;;9.48;2.10;;;10.80;99.90;;;;;;4843999;29;20259;-87
2022/10/02 00:28:16;;;;;;;6.72;1.75;;;10.80;99.90;;;;;;4844123;29;20365;-86
2022/10/02 00:30:53;;;;;;;9.77;1.83;;;10.80;99.90;;;;;;4843906;29;20208;-88
2022/10/02 00:33:44;;;;;;;9.10;1.80;;;10.80;99.90;;;;;;4843933;29;20221;-87
2022/10/02 00:36:47;;;;;;;6.47;1.45;;;10.80;99.90;;;;;;4843903;29;20315;-89
2022/10/02 00:39:22;;;;;;;10.65;2.20;;;10.90;99.90;;;;;;4844077;29;20181;-86
2022/10/02 00:42:09;;;;;;;6.93;1.88;;;10.80;99.90;;;;;;4850148;29;20188;-87
2022/10/02 00:44:59;;;;;;;13.60;1.58;;;10.90;99.90;;;;;;4846815;29;20272;-87
2022/10/02 00:47:41;;;;;;;8.38;1.50;;;10.90;99.90;;;;;;4828608;29;20177;-86
2022/10/02 00:50:41;;;;;;;7.93;1.58;;;10.90;99.90;;;;;;4844884;29;20174;-87
2022/10/02 00:53:32;;;;;;;11.43;1.73;;;10.90;99.90;;;;;;4828640;29;20197;-86
2022/10/02 00:56:44;;;;;;;7.82;1.48;;;11.00;99.90;;;;;;4844411;29;20169;-86
2022/10/02 00:59:28;;;;;;;12.77;1.98;;;11.00;99.90;;;;;;4828254;29;20199;-88
2022/10/02 01:02:05;;;;;;;6.20;1.50;;;11.00;99.90;;;;;;4844324;29;20186;-86
2022/10/02 01:04:34;;;;;;;8.13;1.73;;;11.10;99.90;;;;;;4843925;29;20233;-89
2022/10/02 01:07:02;;;;;;;7.65;1.63;;;11.10;99.90;;;;;;4844179;29;20253;-85
2022/10/02 01:09:28;;;;;;;10.27;1.88;;;11.10;99.90;;;;;;4844281;29;20333;-88
2022/10/02 01:11:54;;;;;;;10.90;1.95;;;11.10;99.90;;;;;;4827008;29;20323;-87
2022/10/02 01:14:31;;;;;;;9.85;1.77;;;11.10;99.90;;;;;;4827751;29;20181;-87
2022/10/02 01:16:57;;;;;;;3.88;1.38;;;11.10;99.90;;;;;;4828216;29;20653;-87
2022/10/02 01:19:37;;;;;;;6.68;1.52;;;11.20;99.90;;;;;;4844192;29;20230;-87
2022/10/02 01:22:16;;;;;;;7.60;1.50;;;11.20;99.90;;;;;;4828257;29;20234;-88
2022/10/02 01:24:53;;;;;;;7.15;1.58;;;11.20;99.90;;;;;;4844022;29;20184;-86
2022/10/02 01:27:19;;;;;;;10.27;1.70;;;11.20;99.90;;;;;;4827702;29;20178;-85
2022/10/02 01:29:49;;;;;;;7.35;1.33;;;11.20;99.90;;;;;;4827986;29;20185;-88
2022/10/02 01:32:17;;;;;;;8.38;1.90;;;11.30;99.90;;;;;;4828003;29;20303;-87
2022/10/02 01:34:44;;;;;;;5.72;1.38;;;11.30;99.90;;;;;;4843936;29;20177;-87
2022/10/02 01:37:10;;;;;;;8.68;1.50;;;11.30;99.90;;;;;;4844283;29;20214;-88
2022/10/02 01:39:36;;;;;;;8.23;1.33;;;11.30;99.90;;;;;;4827877;29;20185;-86
2022/10/02 01:42:02;;;;;;;6.35;1.30;;;11.30;99.90;;;;;;4827919;29;20192;-91
2022/10/02 01:44:29;;;;;;;8.05;1.20;;;11.30;99.90;;;;;;4843706;29;20174;-88
2022/10/02 01:47:09;;;;;;;5.63;1.63;;;11.30;99.90;;;;;;4827301;29;20186;-86
2022/10/02 01:49:54;;;;;;;5.03;1.20;;;11.30;99.90;;;;;;4828121;29;20181;-88
2022/10/02 01:52:47;;;;;;;5.35;1.17;;;11.30;99.90;;;;;;4827464;29;20220;-87
2022/10/02 01:55:25;;;;;;;7.10;1.30;;;11.30;99.90;;;;;;4827657;29;20177;-86
2022/10/02 01:58:18;;;;;;;7.43;1.40;;;11.20;99.90;;;;;;4831055;29;20180;-88
2022/10/02 02:01:11;;;;;;;6.45;1.67;;;11.20;99.90;;;;;;4861195;29;20208;-87
2022/10/02 02:03:53;;;;;;;8.07;1.67;;;11.20;99.90;;;;;;4861154;29;20280;-89
2022/10/02 02:06:32;;;;;;;13.02;1.90;;;11.20;99.90;;;;;;4861348;29;20217;-89
2022/10/02 02:09:19;;;;;;;7.13;1.55;;;11.20;99.90;;;;;;4861467;29;20176;-88
2022/10/02 02:12:07;;;;;;;7.57;1.65;;;11.20;99.90;;;;;;4861077;29;20609;-89
2022/10/02 02:14:47;;;;;;;10.70;1.60;;;11.20;99.90;;;;;;4862250;29;20161;-88
2022/10/02 02:17:21;;;;;;;7.78;1.75;;;11.10;99.90;;;;;;4862185;29;20220;-87
2022/10/02 02:20:08;;;;;;;8.35;1.55;;;11.10;99.90;;;;;;4845862;29;20294;-87
2022/10/02 02:22:42;;;;;;;8.50;1.80;;;11.10;99.90;;;;;;4862195;29;20200;-86
2022/10/02 02:25:25;;;;;;;6.45;1.67;;;11.10;99.90;;;;;;4865858;29;20172;-88
2022/10/02 02:28:06;;;;;;;5.80;1.20;;;11.10;99.90;;;;;;4849220;29;20627;-89
2022/10/02 02:30:34;;;;;;;8.27;1.52;;;11.20;99.90;;;;;;4849358;29;20336;-88
2022/10/02 02:33:38;;;;;;;5.38;1.50;;;11.10;99.90;;;;;;4849284;29;20219;-89
2022/10/02 02:36:12;;;;;;;10.00;1.63;;;11.10;99.90;;;;;;4847002;29;20191;-88
2022/10/02 02:38:53;;;;;;;5.13;1.25;;;11.00;99.90;;;;;;4849267;29;20212;-87
2022/10/02 02:41:24;;;;;;;3.42;1.08;;;11.00;99.90;;;;;;4849561;29;20275;-89
2022/10/02 02:44:23;;;;;;;12.32;1.67;;;10.90;99.90;;;;;;4845781;29;20196;-89
2022/10/02 02:47:04;;;;;;;5.70;1.40;;;10.90;99.90;;;;;;4846351;29;20213;-89
2022/10/02 02:49:44;;;;;;;7.38;1.73;;;10.90;99.90;;;;;;4846298;29;20203;-88
2022/10/02 02:52:16;;;;;;;3.65;1.33;;;10.80;99.90;;;;;;4858181;29;20220;-89
2022/10/02 02:54:53;;;;;;;5.40;1.67;;;10.80;99.90;;;;;;4849177;29;20577;-89
2022/10/02 02:57:26;;;;;;;7.45;1.55;;;10.80;99.90;;;;;;4848864;29;20237;-89
2022/10/02 02:59:54;;;;;;;12.15;1.45;;;10.80;99.90;;;;;;4849083;29;20184;-88
2022/10/02 03:02:20;;;;;;;7.32;1.33;;;10.70;99.90;;;;;;4848858;29;20187;-88
2022/10/02 03:04:45;;;;;;;8.68;1.50;;;10.70;99.90;;;;;;4864965;29;20307;-87
2022/10/02 03:07:17;;;;;;;9.68;1.83;;;10.70;99.90;;;;;;4848613;29;20180;-88
2022/10/02 03:10:14;;;;;;;9.52;1.80;;;10.70;99.90;;;;;;4848944;29;20526;-89
2022/10/02 03:13:07;;;;;;;6.20;1.50;;;10.60;99.90;;;;;;4848294;29;20216;-90
2022/10/02 03:15:51;;;;;;;7.50;1.65;;;10.60;99.90;;;;;;4848486;29;20176;-89
2022/10/02 03:18:20;;;;;;;9.98;2.05;;;10.60;99.90;;;;;;4848430;29;20188;-88
2022/10/02 03:20:49;;;;;;;6.53;1.27;;;10.60;99.90;;;;;;4865094;29;20213;-88
2022/10/02 03:23:43;;;;;;;7.30;1.63;;;10.60;99.90;;;;;;4864806;29;20181;-88
2022/10/02 03:26:18;;;;;;;5.28;1.60;;;10.50;99.90;;;;;;4828400;29;20216;-88
2022/10/02 03:29:06;;;;;;;10.02;1.88;;;10.50;99.90;;;;;;4848224;29;20275;-87
2022/10/02 03:31:34;;;;;;;4.57;1.42;;;10.50;99.90;;;;;;4864842;29;20675;-88
2022/10/02 03:34:02;;;;;;;6.45;1.90;;;10.50;99.90;;;;;;4848338;29;20575;-88
2022/10/02 03:36:28;;;;;;;12.85;1.80;;;10.40;99.90;;;;;;4847279;29;20192;-88
2022/10/02 03:38:59;;;;;;;10.32;1.92;;;10.40;99.90;;;;;;4848384;29;20285;-87
2022/10/02 03:41:24;;;;;;;13.02;2.10;;;10.40;99.90;;;;;;4864824;29;20180;-89
2022/10/02 03:43:50;;;;;;;8.80;2.08;;;10.50;99.90;;;;;;4853830;29;20185;-88
2022/10/02 03:46:17;;;;;;;8.75;1.92;;;10.50;99.90;;;;;;4829619;29;20250;-88
2022/10/02 03:48:42;;;;;;;12.48;2.13;;;10.50;99.90;;;;;;4846073;29;20180;-88
2022/10/02 03:51:08;;;;;;;9.82;1.75;;;10.50;99.90;;;;;;4846698;29;20292;-86
2022/10/02 03:53:34;;;;;;;15.70;2.70;;;10.60;99.90;;;;;;4864369;29;20184;-86
2022/10/02 03:56:28;;;;;;;12.95;2.47;;;10.50;99.90;;;;;;4847697;29;20501;-88
2022/10/02 03:58:56;;;;;;;9.15;2.78;;;10.60;99.90;;;;;;4847456;29;20196;-87
2022/10/02 04:01:36;;;;;;;11.60;2.83;;;10.60;99.90;;;;;;4847701;29;20267;-87
2022/10/02 04:04:20;;;;;;;17.90;3.45;;;10.60;99.90;;;;;;4847243;29;20228;-87
2022/10/02 04:06:55;;;;;;;12.00;2.97;;;10.60;99.90;;;;;;4847449;29;20181;-86
2022/10/02 04:09:38;;;;;;;9.35;3.33;;;10.60;99.90;;;;;;4847428;29;20207;-85
2022/10/02 04:12:15;;;;;;;13.43;3.60;;;10.70;99.90;;;;;;4847377;29;20220;-87
2022/10/02 04:14:41;;;;;;;17.73;3.75;;;10.70;99.90;;;;;;4847437;29;20589;-87
2022/10/02 04:17:20;;;;;;;13.20;3.88;;;10.70;99.90;;;;;;4847519;29;20279;-86
2022/10/02 04:19:56;;;;;;;7.80;3.17;;;10.70;99.90;;;;;;4863885;29;20172;-85
2022/10/02 04:22:43;;;;;;;16.67;4.35;;;10.70;99.90;;;;;;4847231;29;20229;-87
2022/10/02 04:25:20;;;;;;;15.15;4.00;;;10.70;99.90;;;;;;4863676;29;20616;-87
2022/10/02 04:27:58;;;;;;;11.15;3.30;;;10.80;99.90;;;;;;4847094;29;20526;-86
2022/10/02 04:30:24;;;;;;;19.60;4.00;;;10.80;99.90;;;;;;4863619;29;20196;-90
2022/10/02 04:32:51;;;;;;;18.27;3.70;;;10.80;99.90;;;;;;4846859;29;20244;-86
2022/10/02 04:35:40;;;;;;;11.25;3.42;;;10.80;99.90;;;;;;4846747;29;20184;-87
2022/10/02 04:38:19;;;;;;;11.18;3.47;;;10.80;99.90;;;;;;4863679;29;20255;-87
2022/10/02 04:40:51;;;;;;;15.98;3.63;;;10.80;99.90;;;;;;4846974;29;20518;-87
2022/10/02 04:43:35;;;;;;;14.68;3.90;;;10.80;99.90;;;;;;4863151;29;20644;-87
2022/10/02 04:46:26;;;;;;;13.10;3.42;;;10.80;99.90;;;;;;4846887;29;20616;-86
2022/10/02 04:49:16;;;;;;;11.50;3.72;;;10.80;99.90;;;;;;4862832;29;20177;-86
2022/10/02 04:52:00;;;;;;;15.75;3.78;;;10.80;99.90;;;;;;4828137;29;20205;-87
2022/10/02 04:54:53;;;;;;;19.27;3.95;;;10.80;99.90;;;;;;4843483;29;20185;-89
2022/10/02 04:57:59;;;;;;;16.55;3.95;;;10.80;99.90;;;;;;4843535;29;20197;-86
2022/10/02 05:00:30;;;;;;;17.83;4.80;;;10.80;99.90;;;;;;4828308;29;20189;-85
2022/10/02 05:03:04;;;;;;;17.02;4.82;;;10.80;99.90;;;;;;4828109;29;20235;-89
2022/10/02 05:06:07;;;;;;;14.48;4.57;;;10.80;99.90;;;;;;4844342;29;20191;-87
2022/10/02 05:08:58;;;;;;;17.33;4.85;;;10.80;99.90;;;;;;4843344;29;20181;-88
2022/10/02 05:11:42;;;;;;;13.35;4.65;;;10.70;99.90;;;;;;4844571;29;20558;-87
2022/10/02 05:14:14;;;;;;;16.77;4.72;;;10.70;99.90;;;;;;4844263;29;20169;-86
2022/10/02 05:17:16;;;;;;;15.02;5.15;;;10.70;99.90;;;;;;4844344;29;20260;-85
2022/10/02 05:19:56;;;;;;;16.75;5.32;;;10.80;99.90;;;;;;4808392;29;20192;-89
2022/10/02 05:22:38;;;;;;;14.73;4.97;;;10.80;99.90;;;;;;4827941;29;20652;-88
2022/10/02 05:25:28;;;;;;;12.23;4.70;;;10.80;99.90;;;;;;4842817;29;20610;-87
2022/10/02 05:28:26;;;;;;;14.70;5.40;;;10.90;99.90;;;;;;4843009;29;20188;-90
2022/10/02 05:31:04;;;;;;;16.65;5.30;;;10.90;99.90;;;;;;4813475;29;20221;-90
2022/10/02 05:33:45;;;;;;;14.98;5.55;;;10.90;99.90;;;;;;4844046;29;20181;-89
2022/10/02 05:36:23;;;;;;;18.73;6.25;;;10.90;99.90;;;;;;4827660;29;20189;-87
2022/10/02 05:39:01;;;;;;;22.55;6.95;;;10.90;99.90;;;;;;4827732;29;20256;-89
2022/10/02 05:41:42;;;;;;;15.40;6.13;;;11.00;99.90;;;;;;4844117;29;20197;-89
2022/10/02 05:44:27;;;;;;;17.05;6.38;;;11.00;99.90;;;;;;4827678;29;20505;-86
2022/10/02 05:47:04;;;;;;;23.48;6.93;;;11.00;99.90;;;;;;4831917;29;20687;-88
2022/10/02 05:49:36;;;;;;;24.00;7.50;;;11.00;99.90;;;;;;4874499;29;20213;-88
2022/10/02 05:52:24;;;;;;;15.18;6.60;;;11.10;99.90;;;;;;4860616;29;20215;-87
2022/10/02 05:54:59;;;;;;;18.55;7.68;;;11.20;99.90;;;;;;4859435;29;20184;-87
2022/10/02 05:57:33;;;;;;;28.42;8.35;;;11.20;99.90;;;;;;4859151;29;20179;-88
2022/10/02 06:00:18;;;;;;;26.45;8.52;;;11.30;99.90;;;;;;4860815;29;20180;-88
2022/10/02 06:03:08;;;;;;;32.65;9.02;;;11.40;99.90;;;;;;4861870;29;20264;-88
2022/10/02 06:05:54;;;;;;;21.42;8.57;;;11.40;99.90;;;;;;4860439;29;20189;-90
2022/10/02 06:08:34;;;;;;;21.65;8.15;;;11.50;99.90;;;;;;4860782;29;20184;-88
2022/10/02 06:11:19;;;;;;;17.08;8.27;;;11.50;99.90;;;;;;4860395;29;20212;-87
2022/10/02 06:13:59;;;;;;;19.52;9.35;;;11.50;99.90;;;;;;4860583;29;20180;-87
2022/10/02 06:16:52;;;;;;;21.13;8.98;;;11.50;99.90;;;;;;4861732;29;20497;-89
2022/10/02 06:19:27;;;;;;;19.02;9.07;;;11.60;99.90;;;;;;4860239;29;20663;-91
2022/10/02 06:21:58;;;;;;;19.92;9.25;;;11.50;99.90;;;;;;4845054;29;20190;-86
2022/10/02 06:24:49;;;;;;;21.67;9.82;;;11.50;99.90;;;;;;4861544;29;20632;-86
2022/10/02 06:27:16;;;;;;;23.80;9.10;;;11.50;99.90;;;;;;4845003;29;20187;-86
2022/10/02 06:29:49;;;;;;;26.23;9.32;;;11.50;99.90;;;;;;4845042;29;20633;-88
2022/10/02 06:32:43;;;;;;;19.80;10.07;;;11.50;99.90;;;;;;4861541;29;20220;-87
2022/10/02 06:35:15;;;;;;;17.63;9.50;;;11.50;99.90;;;;;;4844392;29;20177;-86
2022/10/02 06:37:50;;;;;;;24.40;10.98;;;11.60;99.90;;;;;;4844702;29;20196;-87
2022/10/02 06:40:44;;;;;;;22.70;9.98;;;11.70;99.90;;;;;;4844927;29;20176;-86
2022/10/02 06:43:20;;;;;;;25.30;10.15;;;11.70;99.90;;;;;;4844693;29;20177;-85
2022/10/02 06:46:01;;;;;;;25.73;10.40;;;11.70;99.90;;;;;;4861181;29;20613;-87
2022/10/02 06:49:08;;;;;;;28.13;10.68;;;11.70;99.90;;;;;;4844950;29;20188;-87
2022/10/02 06:51:56;;;;;;;21.33;10.90;;;11.70;99.90;;;;;;4826148;29;20251;-87
2022/10/02 06:54:31;;;;;;;22.13;10.80;;;11.80;99.90;;;;;;4826101;29;20272;-85
2022/10/02 06:57:22;;;;;;;23.35;11.27;;;11.90;99.90;;;;;;4842723;29;20193;-86
2022/10/02 06:59:51;;;;;;;23.80;10.80;;;12.00;99.90;;;;;;4842879;29;20178;-88
2022/10/02 07:02:26;;;;;;;23.48;11.50;;;12.10;99.90;;;;;;4826467;29;20260;-87
2022/10/02 07:05:24;;;;;;;29.58;10.90;;;12.20;99.90;;;;;;4825667;29;20232;-87
2022/10/02 07:08:11;;;;;;;22.33;10.68;;;12.20;99.90;;;;;;4825860;29;20232;-88
2022/10/02 07:11:39;;;;;;;22.30;10.85;;;12.40;99.90;;;;;;4843998;29;20602;-87
2022/10/02 07:14:14;;;;;;;18.88;10.10;;;12.40;99.90;;;;;;4792368;29;20720;-87
2022/10/02 07:16:58;;;;;;;24.83;10.70;;;12.30;99.90;;;;;;4845969;29;20259;-87
2022/10/02 07:19:52;;;;;;;21.60;9.60;;;12.30;99.90;;;;;;4849553;29;20196;-87
2022/10/02 07:22:17;;;;;;;28.27;10.43;;;12.40;99.90;;;;;;4864378;29;20232;-86
2022/10/02 07:25:11;;;;;;;17.27;9.52;;;12.40;99.90;;;;;;4864103;29;20212;-86
2022/10/02 07:27:54;;;;;;;23.98;10.32;;;12.40;99.90;;;;;;4864200;29;20518;-87
2022/10/02 07:30:20;;;;;;;25.00;9.85;;;12.50;99.90;;;;;;4864411;29;20172;-87
2022/10/02 07:32:49;;;;;;;28.80;10.52;;;12.50;99.90;;;;;;4847559;29;20235;-87
2022/10/02 07:35:28;;;;;;;18.67;9.32;;;12.60;99.90;;;;;;4863910;29;20711;-87
2022/10/02 07:38:47;;;;;;;18.50;9.40;;;12.70;99.90;;;;;;4864045;29;20184;-87
2022/10/02 07:41:18;;;;;;;18.27;9.13;;;12.70;99.90;;;;;;4791872;29;20182;-88
2022/10/02 07:44:02;;;;;;;22.42;8.95;;;12.80;99.90;;;;;;4861473;29;20257;-88
2022/10/02 07:46:47;;;;;;;20.27;8.70;;;12.80;99.90;;;;;;4847195;29;20184;-87
2022/10/02 07:49:36;;;;;;;28.08;9.25;;;12.80;99.90;;;;;;4847324;29;20203;-85
2022/10/02 07:52:31;;;;;;;17.55;8.50;;;12.90;99.90;;;;;;4847152;29;20212;-84
2022/10/02 07:55:31;;;;;;;16.02;8.43;;;13.10;99.90;;;;;;4840614;29;20203;-87
2022/10/02 07:58:03;;;;;;;18.35;7.60;;;13.30;99.90;;;;;;4817732;29;20196;-85
2022/10/02 08:00:35;;;;;;;24.58;8.25;;;13.40;99.90;;;;;;4847003;29;20188;-89
2022/10/02 08:03:11;;;;;;;18.77;7.00;;;13.50;99.90;;;;;;4846739;29;20263;-86
2022/10/02 08:05:43;;;;;;;17.25;6.53;;;13.50;99.90;;;;;;4846749;29;20576;-87
2022/10/02 08:08:24;;;;;;;15.23;6.63;;;13.50;99.90;;;;;;4846938;29;20188;-86
2022/10/02 08:10:55;;;;;;;15.27;5.90;;;13.50;99.90;;;;;;4846877;29;20185;-88
2022/10/02 08:13:32;;;;;;;18.42;6.00;;;13.50;99.90;;;;;;4846608;29;20189;-86
2022/10/02 08:15:58;;;;;;;13.75;6.00;;;13.50;99.90;;;;;;4863265;29;20179;-87
2022/10/02 08:18:51;;;;;;;17.23;5.90;;;13.50;99.90;;;;;;4863357;29;20181;-88
2022/10/02 08:21:21;;;;;;;12.50;5.82;;;13.60;99.90;;;;;;4846168;29;20180;-85
2022/10/02 08:24:05;;;;;;;14.80;5.95;;;13.70;99.90;;;;;;4862965;29;20169;-87
2022/10/02 08:26:41;;;;;;;14.07;5.38;;;13.80;99.90;;;;;;4846766;29;20192;-91
2022/10/02 08:29:23;;;;;;;17.02;6.28;;;13.80;99.90;;;;;;4846640;29;20184;-86
2022/10/02 08:31:53;;;;;;;19.38;6.18;;;13.70;99.90;;;;;;4846487;29;20224;-89
2022/10/02 08:34:21;;;;;;;19.75;5.45;;;13.80;99.90;;;;;;4862989;29;20511;-91
2022/10/02 08:37:03;;;;;;;20.38;5.65;;;13.70;99.90;;;;;;4846363;29;20188;-85
2022/10/02 08:39:35;;;;;;;18.42;5.68;;;13.80;99.90;;;;;;4846502;29;20180;-86
2022/10/02 08:42:28;;;;;;;15.57;5.57;;;13.80;99.90;;;;;;4863041;29;20680;-87
2022/10/02 08:45:22;;;;;;;14.27;4.88;;;13.80;99.90;;;;;;4846376;29;20211;-90
2022/10/02 08:47:54;;;;;;;13.73;4.82;;;13.90;99.90;;;;;;4846397;29;20189;-87
2022/10/02 08:50:40;;;;;;;10.57;4.47;;;14.00;99.90;;;;;;4845959;29;20244;-89
2022/10/02 08:53:28;;;;;;;9.18;4.50;;;14.00;99.90;;;;;;4846134;29;20264;-87
2022/10/02 08:56:12;;;;;;;15.88;4.80;;;14.00;99.90;;;;;;4846067;29;20616;-87
2022/10/02 08:58:57;;;;;;;16.92;5.30;;;14.10;99.90;;;;;;4862744;29;20565;-88
2022/10/02 09:01:44;;;;;;;14.27;4.88;;;14.20;99.90;;;;;;4862649;29;20207;-88
2022/10/02 09:04:39;;;;;;;16.52;4.90;;;14.20;99.90;;;;;;4862438;29;20224;-87
2022/10/02 09:07:49;;;;;;;16.05;4.40;;;14.30;99.90;;;;;;4862632;29;20247;-89
2022/10/02 09:10:49;;;;;;;18.45;3.92;;;14.40;99.90;;;;;;4862593;29;20180;-88
2022/10/02 09:13:41;;;;;;;13.85;3.67;;;14.60;99.90;;;;;;4862457;29;20173;-86
2022/10/02 09:16:11;;;;;;;14.20;3.30;;;14.80;99.90;;;;;;4845744;29;20809;-89
2022/10/02 09:18:42;;;;;;;15.73;3.17;;;14.90;99.90;;;;;;4845991;29;20317;-86
2022/10/02 09:21:29;;;;;;;11.23;3.38;;;15.00;99.90;;;;;;4862046;29;20224;-87
2022/10/02 09:24:24;;;;;;;8.20;2.97;;;14.90;99.90;;;;;;4845825;29;20698;-90
2022/10/02 09:27:36;;;;;;;14.20;3.38;;;14.70;99.90;;;;;;4826026;29;20189;-87
2022/10/02 09:30:16;;;;;;;13.57;3.08;;;14.80;99.90;;;;;;4845731;29;20187;-85
2022/10/02 09:33:00;;;;;;;11.32;3.70;;;14.80;99.90;;;;;;4844771;29;20220;-88
2022/10/02 09:35:41;;;;;;;16.75;3.13;;;15.00;99.90;;;;;;4845598;29;20173;-86
2022/10/02 09:38:13;;;;;;;16.15;3.55;;;15.30;99.90;;;;;;4845234;29;20510;-86
2022/10/02 09:41:16;;;;;;;11.82;2.50;;;15.40;99.90;;;;;;4845564;29;20220;-86
2022/10/02 09:44:05;;;;;;;10.02;2.45;;;15.40;99.90;;;;;;4862113;29;20232;-87
2022/10/02 09:46:41;;;;;;;10.68;2.28;;;15.40;99.90;;;;;;4866628;29;20212;-88
2022/10/02 09:49:16;;;;;;;8.20;2.42;;;15.50;99.90;;;;;;4859788;29;20221;-87
2022/10/02 09:52:00;;;;;;;6.78;1.98;;;15.50;99.90;;;;;;4850341;29;20632;-86
2022/10/02 09:54:36;;;;;;;11.45;1.92;;;15.50;99.90;;;;;;4861798;29;20212;-86
2022/10/02 09:57:23;;;;;;;8.50;2.05;;;15.50;99.90;;;;;;4866886;29;20184;-86
2022/10/02 10:00:11;;;;;;;8.63;1.90;;;15.50;99.90;;;;;;4859690;29;20603;-87
2022/10/02 10:03:15;;;;;;;10.85;1.92;;;15.40;99.90;;;;;;4879899;29;20647;-86
2022/10/02 10:06:05;;;;;;;12.02;2.33;;;15.60;99.90;;;;;;4859687;29;20764;-87
2022/10/02 10:09:04;;;;;;;7.20;1.73;;;15.80;99.90;;;;;;4826610;29;20200;-86
2022/10/02 10:11:49;;;;;;;6.43;1.70;;;15.80;99.90;;;;;;4826783;29;20209;-89
2022/10/02 10:14:43;;;;;;;9.80;1.98;;;15.90;99.90;;;;;;4826734;29;20197;-86
2022/10/02 10:17:12;;;;;;;9.88;1.92;;;15.80;99.90;;;;;;4826637;29;20268;-85
2022/10/02 10:19:46;;;;;;;8.43;2.00;;;15.70;99.90;;;;;;4831645;29;20196;-86
2022/10/02 10:22:25;;;;;;;6.78;1.70;;;15.60;99.90;;;;;;4861790;29;20250;-86
2022/10/02 10:25:15;;;;;;;9.82;1.70;;;15.40;99.90;;;;;;4844717;29;20218;-86
2022/10/02 10:28:10;;;;;;;9.30;1.80;;;15.40;99.90;;;;;;4861404;29;20293;-87
2022/10/02 10:30:48;;;;;;;5.53;1.67;;;15.40;99.90;;;;;;4861467;29;20250;-87
2022/10/02 10:33:29;;;;;;;7.60;1.95;;;15.50;99.90;;;;;;4844662;29;20227;-87
2022/10/02 10:39:35;;;;;;;12.48;2.08;;;15.60;99.90;;;;;;4868382;29;20211;-85
2022/10/02 10:42:36;;;;;;;7.35;1.67;;;15.50;99.90;;;;;;4868620;29;20641;-86
2022/10/02 10:45:17;;;;;;;10.07;1.35;;;15.40;99.90;;;;;;4860049;29;20214;-87
2022/10/02 10:48:04;;;;;;;7.22;1.27;;;15.40;99.90;;;;;;4853898;29;20676;-88
2022/10/02 10:51:13;;;;;;;6.00;1.50;;;15.50;99.90;;;;;;4864334;29;20236;-86
2022/10/02 10:54:39;;;;;;;7.38;1.73;;;15.60;99.90;;;;;;4859854;29;20227;-87
2022/10/02 10:57:50;;;;;;;8.38;1.90;;;15.60;99.90;;;;;;4810630;29;20586;-87
2022/10/02 11:00:43;;;;;;;12.93;2.17;;;15.60;99.90;;;;;;4810620;29;20520;-85
2022/10/02 11:03:39;;;;;;;10.30;1.77;;;15.50;99.90;;;;;;4858865;29;20228;-88
2022/10/02 11:06:39;;;;;;;8.32;1.40;;;15.40;99.90;;;;;;4841220;29;20532;-88
2022/10/02 11:09:25;;;;;;;10.45;1.80;;;15.40;99.90;;;;;;4861100;29;20192;-85
2022/10/02 11:12:09;;;;;;;9.63;1.40;;;15.50;99.90;;;;;;4846354;29;20274;-86
2022/10/02 11:14:41;;;;;;;9.15;1.67;;;15.90;99.90;;;;;;4844582;29;20216;-86
2022/10/02 11:17:10;;;;;;;12.30;1.75;;;15.90;99.90;;;;;;4863497;29;20193;-86
2022/10/02 11:19:44;;;;;;;6.75;1.27;;;15.80;99.90;;;;;;4845928;29;20192;-85
2022/10/02 11:22:32;;;;;;;7.63;1.52;;;15.90;99.90;;;;;;4863057;29;20187;-87
2022/10/02 11:25:30;;;;;;;7.82;1.40;;;15.70;99.90;;;;;;4842224;29;20203;-86
2022/10/02 11:28:11;;;;;;;7.80;1.50;;;15.70;99.90;;;;;;4845948;29;20219;-85
2022/10/02 11:31:10;;;;;;;8.02;1.40;;;15.80;99.90;;;;;;4843016;29;20643;-85
2022/10/02 11:34:07;;;;;;;7.28;1.38;;;15.80;99.90;;;;;;4859903;29;20200;-87
2022/10/02 11:36:49;;;;;;;10.10;1.65;;;15.80;99.90;;;;;;4843467;29;20265;-87
2022/10/02 11:39:37;;;;;;;8.38;1.33;;;16.00;99.90;;;;;;4844426;29;20279;-86
2022/10/02 11:42:21;;;;;;;11.32;1.90;;;16.00;99.90;;;;;;4845491;29;20193;-86
2022/10/02 11:45:22;;;;;;;12.02;1.88;;;15.90;99.90;;;;;;4863115;29;20185;-89
2022/10/02 11:48:17;;;;;;;6.38;1.52;;;16.00;99.90;;;;;;4775425;30;20238;-88
2022/10/02 11:51:02;;;;;;;10.15;1.80;;;16.20;99.90;;;;;;4845800;29;20672;-85
2022/10/02 11:53:46;;;;;;;9.18;1.65;;;16.30;99.90;;;;;;4844925;29;20205;-85
2022/10/02 11:56:28;;;;;;;10.75;2.17;;;16.40;99.90;;;;;;4842604;29;20184;-85
2022/10/02 11:59:21;;;;;;;6.20;1.48;;;16.50;99.90;;;;;;4846364;29;20201;-86
2022/10/02 12:02:05;;;;;;;8.07;1.83;;;16.80;99.90;;;;;;4862201;29;20180;-83
2022/10/02 12:04:51;;;;;;;9.20;1.70;;;16.90;99.90;;;;;;4844961;29;20236;-86
2022/10/02 12:07:30;;;;;;;7.57;1.50;;;17.00;99.90;;;;;;4843540;29;20204;-85
2022/10/02 12:10:32;;;;;;;10.82;1.80;;;17.10;99.90;;;;;;4846128;29;20188;-87
2022/10/02 12:13:29;;;;;;;5.00;1.25;;;17.00;99.90;;;;;;4843238;29;20222;-93
2022/10/02 12:16:06;;;;;;;6.18;1.48;;;16.70;99.90;;;;;;4845149;29;20199;-90
2022/10/02 12:19:09;;;;;;;8.13;2.03;;;16.30;99.90;;;;;;4864306;29;20191;-89
2022/10/02 12:28:20;;;;;;;4.90;1.40;;;14.60;99.90;;;;;;4862832;29;20199;-89
2022/10/02 12:31:25;;;;;;;4.15;1.10;;;14.40;99.90;;;;;;4846793;29;20192;-86
2022/10/02 12:34:23;;;;;;;5.78;1.25;;;14.20;99.90;;;;;;4858778;29;20359;-87
2022/10/02 12:37:16;;;;;;;6.75;2.00;;;14.10;99.90;;;;;;4852618;29;20180;-88
2022/10/02 12:39:55;;;;;;;5.40;1.30;;;14.00;99.90;;;;;;4812154;29;20528;-90
2022/10/02 12:42:33;;;;;;;13.85;5.15;;;14.00;99.90;;;;;;4869953;29;20320;-88
2022/10/02 12:45:27;;;;;;;8.07;2.03;;;14.10;99.90;;;;;;4859399;29;20505;-87
2022/10/02 12:48:26;;;;;;;7.13;1.92;;;14.40;99.90;;;;;;4861633;29;20274;-88
2022/10/02 12:51:27;;;;;;;9.00;1.88;;;14.70;99.90;;;;;;4859018;29;20185;-88
2022/10/02 12:54:16;;;;;;;7.65;1.77;;;15.00;99.90;;;;;;4862010;29;20189;-86
2022/10/02 12:57:00;;;;;;;3.28;1.30;;;15.30;99.90;;;;;;4861721;29;20700;-87
2022/10/02 12:59:32;;;;;;;3.53;1.20;;;15.50;99.90;;;;;;4863154;29;20169;-87
2022/10/02 13:02:09;;;;;;;7.22;1.75;;;15.60;99.90;;;;;;4864701;29;20184;-86
2022/10/02 13:04:40;;;;;;;7.18;1.80;;;15.70;99.90;;;;;;4864350;29;20271;-86
2022/10/02 13:07:15;;;;;;;6.95;2.13;;;15.70;99.90;;;;;;4880863;29;20169;-86
2022/10/02 13:09:50;;;;;;;5.85;1.38;;;15.60;99.90;;;;;;4864103;29;20239;-86
2022/10/02 13:12:19;;;;;;;8.98;2.40;;;15.50;99.90;;;;;;4881290;29;20654;-86
2022/10/02 13:15:07;;;;;;;6.55;1.65;;;15.30;99.90;;;;;;4864364;29;20188;-86
2022/10/02 13:18:09;;;;;;;9.77;1.83;;;15.30;99.90;;;;;;4881001;29;20172;-86
2022/10/02 13:20:40;;;;;;;9.05;1.83;;;15.40;99.90;;;;;;4852329;29;20663;-86
2022/10/02 13:23:25;;;;;;;10.50;1.90;;;15.50;99.90;;;;;;4845908;29;20185;-86
2022/10/02 13:26:18;;;;;;;6.03;1.42;;;15.60;99.90;;;;;;4845806;29;20184;-84
2022/10/02 13:29:08;;;;;;;7.72;1.40;;;15.70;99.90;;;;;;4846053;29;20173;-87
2022/10/02 13:31:52;;;;;;;7.78;1.50;;;15.90;99.90;;;;;;4845803;29;20264;-87
2022/10/02 13:34:37;;;;;;;7.90;1.67;;;16.20;99.90;;;;;;4848658;29;20210;-86
2022/10/02 13:37:37;;;;;;;8.38;1.67;;;16.30;99.90;;;;;;4862505;29;20478;-87
2022/10/02 13:40:12;;;;;;;8.93;1.70;;;16.30;99.90;;;;;;4861511;29;20263;-86
2022/10/02 13:43:47;;;;;;;4.50;1.60;;;16.20;99.90;;;;;;4861601;29;20394;-87
2022/10/02 13:46:31;;;;;;;4.22;1.60;;;16.20;99.90;;;;;;4780263;29;20230;-88
2022/10/02 13:49:28;;;;;;;10.95;1.95;;;16.40;99.90;;;;;;4856771;29;20173;-88
2022/10/02 13:52:14;;;;;;;9.30;1.90;;;16.50;99.90;;;;;;4860909;29;20215;-90
2022/10/02 13:55:01;;;;;;;7.57;2.25;;;16.60;99.90;;;;;;4823786;29;20240;-87
2022/10/02 13:58:04;;;;;;;9.10;1.70;;;16.60;99.90;;;;;;4862559;29;20184;-89
2022/10/02 14:00:41;;;;;;;9.10;1.77;;;16.50;99.90;;;;;;4826006;29;20652;-91
2022/10/02 14:03:25;;;;;;;6.10;1.60;;;16.60;99.90;;;;;;4827234;29;20250;-88
2022/10/02 14:05:56;;;;;;;5.57;1.30;;;16.60;99.90;;;;;;4827461;29;20191;-88
2022/10/02 14:08:28;;;;;;;5.72;1.70;;;16.70;99.90;;;;;;4827851;29;20211;-89
2022/10/02 14:11:28;;;;;;;3.60;0.95;;;16.70;99.90;;;;;;4827467;29;20280;-88
2022/10/02 14:14:09;;;;;;;6.38;1.45;;;16.80;99.90;;;;;;4827278;29;20628;-90